createdAt,value
2019-01-21T00:01:53.882Z,109.90
2019-01-21T00:04:25.261Z,102.10
2019-01-21T00:06:56.656Z,101.12
2019-01-21T00:09:28.129Z,100.45
2019-01-21T00:11:59.401Z,89.50
2019-01-21T00:14:31.164Z,96.00
2019-01-21T00:17:02.561Z,86.15
2019-01-21T00:19:33.941Z,77.97
2019-01-21T00:22:05.772Z,90.00
2019-01-21T00:24:37.276Z,81.57
2019-01-21T00:27:08.575Z,83.20
2019-01-21T00:29:39.944Z,85.22
2019-01-21T00:32:11.398Z,75.70
2019-01-21T00:34:42.842Z,81.00
2019-01-21T00:37:14.333Z,80.72
2019-01-21T00:39:45.777Z,87.95
2019-01-21T00:42:17.262Z,86.72
2019-01-21T00:44:48.636Z,78.30
2019-01-21T00:47:20.168Z,76.10
2019-01-21T00:49:51.863Z,67.40
2019-01-21T00:52:23.290Z,64.27
2019-01-21T00:54:54.966Z,61.02
2019-01-21T00:57:26.279Z,63.40
2019-01-21T00:59:57.767Z,61.90
2019-01-21T01:02:29.198Z,66.53
2019-01-21T01:05:00.906Z,73.62
2019-01-21T01:07:32.607Z,84.17
2019-01-21T01:10:04.072Z,80.17
2019-01-21T01:12:35.531Z,76.15
2019-01-21T01:15:08.224Z,78.52
2019-01-21T01:17:39.779Z,85.07
2019-01-21T01:20:14.509Z,77.45
2019-01-21T01:22:46.150Z,78.85
2019-01-21T01:25:17.757Z,81.15
2019-01-21T01:27:50.304Z,79.77
2019-01-21T01:30:21.931Z,86.08
2019-01-21T01:32:53.451Z,82.45
2019-01-21T01:35:25.173Z,73.67
2019-01-21T01:37:56.560Z,74.15
2019-01-21T01:40:28.280Z,79.65
2019-01-21T01:43:00.029Z,77.92
2019-01-21T01:45:31.507Z,70.83
2019-01-21T01:48:03.891Z,74.58
2019-01-21T01:50:35.460Z,80.42
2019-01-21T01:53:07.899Z,80.32
2019-01-21T01:55:39.261Z,84.30
2019-01-21T01:58:11.030Z,72.80
2019-01-21T02:00:42.436Z,78.70
2019-01-21T02:03:13.916Z,73.40
2019-01-21T02:05:45.264Z,76.82
2019-01-21T02:08:17.107Z,75.57
2019-01-21T02:10:48.644Z,70.42
2019-01-21T02:13:20.290Z,77.62
2019-01-21T02:15:51.953Z,65.00
2019-01-21T02:18:23.345Z,68.72
2019-01-21T02:20:58.149Z,58.60
2019-01-21T02:23:33.921Z,60.20
2019-01-21T02:26:10.002Z,61.90
2019-01-21T02:29:01.151Z,60.05
2019-01-21T02:32:05.875Z,55.67
2019-01-21T02:35:22.663Z,60.30
2019-01-21T02:38:33.751Z,52.67
2019-01-21T02:41:28.215Z,47.98
2019-01-21T02:44:51.696Z,43.20
2019-01-21T02:48:00.003Z,44.05
2019-01-21T02:50:56.776Z,43.90
2019-01-21T02:54:04.451Z,39.70
2019-01-21T02:57:16.287Z,42.00
2019-01-21T03:00:07.663Z,37.63
2019-01-21T03:03:30.627Z,38.08
2019-01-21T03:06:42.327Z,39.65
2019-01-21T03:09:57.797Z,34.45
2019-01-21T03:13:16.480Z,38.33
2019-01-21T03:16:37.627Z,36.38
2019-01-21T03:19:58.273Z,37.73
2019-01-21T03:23:25.377Z,37.38
2019-01-21T03:26:30.470Z,38.17
2019-01-21T03:29:46.530Z,34.78
2019-01-21T03:33:13.546Z,33.28
2019-01-21T03:36:05.660Z,35.08
2019-01-21T03:39:19.300Z,35.30
2019-01-21T03:42:04.713Z,32.90
2019-01-21T03:45:25.920Z,32.55
2019-01-21T03:48:31.536Z,32.53
2019-01-21T03:51:26.610Z,32.58
2019-01-21T03:54:15.844Z,32.73
2019-01-21T03:56:55.134Z,34.58
2019-01-21T03:59:43.258Z,32.75
2019-01-21T04:03:06.956Z,31.10
2019-01-21T04:06:06.724Z,32.73
2019-01-21T04:09:22.568Z,30.50
2019-01-21T04:12:15.821Z,32.10
2019-01-21T04:15:32.680Z,32.55
2019-01-21T04:18:46.510Z,33.88
2019-01-21T04:22:00.203Z,32.55
2019-01-21T04:25:24.014Z,31.70
2019-01-21T04:28:31.702Z,32.15
2019-01-21T04:31:42.854Z,29.32
2019-01-21T04:34:39.479Z,31.30
2019-01-21T04:37:42.156Z,33.13
2019-01-21T04:40:47.577Z,35.75
2019-01-21T04:43:40.738Z,33.25
2019-01-21T04:47:11.984Z,32.73
2019-01-21T04:50:30.111Z,34.43
2019-01-21T04:53:39.718Z,31.90
2019-01-21T04:56:47.151Z,31.33
2019-01-21T04:59:44.563Z,35.30
2019-01-21T05:03:08.837Z,35.85
2019-01-21T05:09:52.180Z,32.53
2019-01-21T05:12:45.917Z,36.13
2019-01-21T05:15:54.023Z,33.92
2019-01-21T05:18:52.943Z,34.78
2019-01-21T05:22:06.255Z,33.30
2019-01-21T05:25:18.352Z,32.03
2019-01-21T05:28:26.083Z,34.08
2019-01-21T05:31:43.092Z,34.13
2019-01-21T05:35:13.325Z,35.08
2019-01-21T05:38:22.259Z,34.60
2019-01-21T05:41:25.686Z,34.48
2019-01-21T05:44:39.280Z,36.45
2019-01-21T05:47:56.118Z,36.13
2019-01-21T05:51:18.858Z,36.75
2019-01-21T05:54:21.156Z,36.68
2019-01-21T05:57:39.085Z,34.75
2019-01-21T06:00:44.656Z,40.78
2019-01-21T06:03:36.299Z,37.35
2019-01-21T06:06:29.723Z,36.48
2019-01-21T06:09:28.530Z,32.67
2019-01-21T06:12:28.296Z,34.38
2019-01-21T06:15:21.944Z,35.10
2019-01-21T06:18:33.606Z,36.28
2019-01-21T06:21:39.586Z,38.02
2019-01-21T06:25:03.843Z,37.88
2019-01-21T06:28:15.311Z,38.88
2019-01-21T06:31:42.415Z,31.75
2019-01-21T06:34:55.416Z,41.68
2019-01-21T06:38:10.278Z,36.63
2019-01-21T06:41:28.096Z,35.45
2019-01-21T06:44:31.617Z,38.58
2019-01-21T06:47:29.319Z,34.20
2019-01-21T06:50:10.606Z,38.48
2019-01-21T06:53:17.180Z,38.08
2019-01-21T06:56:30.873Z,36.90
2019-01-21T06:59:34.786Z,33.92
2019-01-21T07:02:41.558Z,36.17
2019-01-21T07:05:47.767Z,39.42
2019-01-21T07:09:08.337Z,37.93
2019-01-21T07:12:16.911Z,35.95
2019-01-21T07:15:28.785Z,34.70
2019-01-21T07:18:15.055Z,36.98
2019-01-21T07:21:07.485Z,34.08
2019-01-21T07:24:15.530Z,34.45
2019-01-21T07:27:08.340Z,31.07
2019-01-21T07:30:05.924Z,37.98
2019-01-21T07:33:02.339Z,41.25
2019-01-21T07:36:13.115Z,35.88
2019-01-21T07:39:14.778Z,32.58
2019-01-21T07:42:31.347Z,34.65
2019-01-21T07:45:14.671Z,36.00
2019-01-21T07:48:19.462Z,36.55
2019-01-21T07:51:21.099Z,36.45
2019-01-21T07:54:32.479Z,34.48
2019-01-21T07:57:43.379Z,29.35
2019-01-21T08:00:58.534Z,31.60
2019-01-21T08:04:06.370Z,28.95
2019-01-21T08:07:14.866Z,31.15
2019-01-21T08:10:01.572Z,32.05
2019-01-21T08:13:06.623Z,30.37
2019-01-21T08:16:08.565Z,30.05
2019-01-21T08:19:12.081Z,28.83
2019-01-21T08:22:14.756Z,31.25
2019-01-21T08:25:18.875Z,38.65
2019-01-21T08:28:19.039Z,37.28
2019-01-21T08:31:33.624Z,33.60
2019-01-21T08:34:42.248Z,34.48
2019-01-21T08:37:48.833Z,31.40
2019-01-21T08:40:59.430Z,32.23
2019-01-21T08:43:49.123Z,29.10
2019-01-21T08:46:33.454Z,35.10
2019-01-21T08:49:50.397Z,34.80
2019-01-21T08:52:34.540Z,33.78
2019-01-21T08:55:45.505Z,33.23
2019-01-21T08:58:51.563Z,33.18
2019-01-21T09:02:10.798Z,37.40
2019-01-21T09:05:08.783Z,45.38
2019-01-21T09:08:08.513Z,41.95
2019-01-21T09:11:29.349Z,37.10
2019-01-21T09:14:31.426Z,52.08
2019-01-21T09:17:42.638Z,42.53
2019-01-21T09:20:59.700Z,33.95
2019-01-21T09:23:57.490Z,36.42
2019-01-21T09:26:59.831Z,29.92
2019-01-21T09:30:13.677Z,29.85
2019-01-21T09:33:06.749Z,35.50
2019-01-21T09:36:16.706Z,30.40
2019-01-21T09:39:30.163Z,30.35
2019-01-21T09:42:32.559Z,27.45
2019-01-21T09:45:15.264Z,34.10
2019-01-21T09:47:44.443Z,28.60
2019-01-21T09:50:15.932Z,28.85
2019-01-21T09:52:47.439Z,28.67
2019-01-21T09:55:19.667Z,27.52
2019-01-21T09:57:57.030Z,27.67
2019-01-21T10:00:28.628Z,27.00
2019-01-21T10:03:01.020Z,26.97
2019-01-21T10:05:33.297Z,23.92
2019-01-21T10:08:30.821Z,25.45
2019-01-21T10:11:38.754Z,31.82
2019-01-21T10:14:54.958Z,31.33
2019-01-21T10:18:28.015Z,28.42
2019-01-21T10:21:30.732Z,25.35
2019-01-21T10:24:43.251Z,24.87
2019-01-21T10:27:43.290Z,23.77
2019-01-21T10:30:30.661Z,24.40
2019-01-21T10:33:54.688Z,26.75
2019-01-21T10:37:00.981Z,25.08
2019-01-21T10:40:08.951Z,27.00
2019-01-21T10:43:02.532Z,24.95
2019-01-21T10:46:19.112Z,26.60
2019-01-21T10:49:37.737Z,26.55
2019-01-21T10:52:30.389Z,26.97
2019-01-21T10:55:27.799Z,30.30
2019-01-21T10:58:36.195Z,24.43
2019-01-21T11:01:32.337Z,24.25
2019-01-21T11:04:32.847Z,21.93
2019-01-21T11:07:31.305Z,25.02
2019-01-21T11:10:24.630Z,24.77
2019-01-21T11:13:39.600Z,23.65
2019-01-21T11:16:20.343Z,23.92
2019-01-21T11:19:38.101Z,24.95
2019-01-21T11:22:42.076Z,23.20
2019-01-21T11:25:55.787Z,28.07
2019-01-21T11:28:56.694Z,25.20
2019-01-21T11:32:08.160Z,24.60
2019-01-21T11:35:00.647Z,23.00
2019-01-21T11:38:10.876Z,24.35
2019-01-21T11:41:23.093Z,28.38
2019-01-21T11:44:30.049Z,29.42
2019-01-21T11:47:29.457Z,27.48
2019-01-21T11:50:31.508Z,27.65
2019-01-21T11:53:26.987Z,27.87
2019-01-21T11:56:12.017Z,27.13
2019-01-21T11:59:34.565Z,35.80
2019-01-21T12:02:47.023Z,39.00
2019-01-21T12:05:28.061Z,26.30
2019-01-21T12:08:31.748Z,25.52
2019-01-21T12:11:33.484Z,28.38
2019-01-21T12:14:45.229Z,27.82
2019-01-21T12:17:40.845Z,26.25
2019-01-21T12:20:21.637Z,24.37
2019-01-21T12:23:28.609Z,28.55
2019-01-21T12:26:49.151Z,28.60
2019-01-21T12:29:43.500Z,22.95
2019-01-21T12:32:59.915Z,25.40
2019-01-21T12:35:53.799Z,28.35
2019-01-21T12:39:06.681Z,26.93
2019-01-21T12:41:58.598Z,27.27
2019-01-21T12:45:13.099Z,25.95
2019-01-21T12:48:40.316Z,25.02
2019-01-21T12:51:46.260Z,24.65
2019-01-21T12:54:58.600Z,26.52
2019-01-21T12:58:19.163Z,27.65
2019-01-21T13:01:17.585Z,24.98
2019-01-21T13:04:16.888Z,24.07
2019-01-21T13:07:37.469Z,26.12
2019-01-21T13:10:39.387Z,24.35
2019-01-21T13:14:00.281Z,30.60
2019-01-21T13:17:15.373Z,29.07
2019-01-21T13:20:23.012Z,29.52
2019-01-21T13:23:20.805Z,29.48
2019-01-21T13:26:47.038Z,27.32
2019-01-21T13:29:48.801Z,27.42
2019-01-21T13:32:45.956Z,32.45
2019-01-21T13:36:09.928Z,27.98
2019-01-21T13:39:27.606Z,29.60
2019-01-21T13:42:32.784Z,27.50
2019-01-21T13:45:31.988Z,26.97
2019-01-21T13:48:30.741Z,30.15
2019-01-21T13:51:38.792Z,26.90
2019-01-21T13:54:50.786Z,27.65
2019-01-21T13:57:53.611Z,24.52
2019-01-21T14:01:16.970Z,23.10
2019-01-21T14:04:26.075Z,23.98
2019-01-21T14:07:53.171Z,24.23
2019-01-21T14:10:49.930Z,25.68
2019-01-21T14:13:55.195Z,27.00
2019-01-21T14:17:06.138Z,28.23
2019-01-21T14:20:23.141Z,26.52
2019-01-21T14:23:29.308Z,27.13
2019-01-21T14:26:43.972Z,25.88
2019-01-21T14:29:33.990Z,23.10
2019-01-21T14:32:38.678Z,23.15
2019-01-21T14:35:24.468Z,27.55
2019-01-21T14:38:35.011Z,26.55
2019-01-21T14:41:40.264Z,30.15
2019-01-21T14:44:58.532Z,29.48
2019-01-21T14:48:06.949Z,26.25
2019-01-21T14:51:24.971Z,28.20
2019-01-21T14:54:33.763Z,35.00
2019-01-21T14:57:49.223Z,30.08
2019-01-21T15:00:51.726Z,35.40
2019-01-21T15:04:09.533Z,35.85
2019-01-21T15:07:01.650Z,34.98
2019-01-21T15:10:18.251Z,29.20
2019-01-21T15:13:14.780Z,31.55
2019-01-21T15:16:23.701Z,30.65
2019-01-21T15:19:32.146Z,30.37
2019-01-21T15:22:41.357Z,32.33
2019-01-21T15:25:49.481Z,30.95
2019-01-21T15:29:11.228Z,32.58
2019-01-21T15:32:08.389Z,36.65
2019-01-21T15:35:34.543Z,38.02
2019-01-21T15:38:31.573Z,35.78
2019-01-21T15:41:50.200Z,35.43
2019-01-21T15:44:33.936Z,33.50
2019-01-21T15:47:44.654Z,38.10
2019-01-21T15:50:48.237Z,39.75
2019-01-21T15:53:34.717Z,40.05
2019-01-21T15:56:54.197Z,39.23
2019-01-21T16:00:30.338Z,42.00
2019-01-21T16:03:16.461Z,47.33
2019-01-21T16:06:40.499Z,49.93
2019-01-21T16:09:34.890Z,54.77
2019-01-21T16:12:51.820Z,53.08
2019-01-21T16:15:54.697Z,48.05
2019-01-21T16:18:36.716Z,51.90
2019-01-21T16:21:47.387Z,57.50
2019-01-21T16:24:58.005Z,54.63
2019-01-21T16:27:54.136Z,51.77
2019-01-21T16:30:48.292Z,54.63
2019-01-21T16:33:55.844Z,54.65
2019-01-21T16:36:58.875Z,51.42
2019-01-21T16:39:43.178Z,51.45
2019-01-21T16:42:15.950Z,50.52
2019-01-21T16:44:48.247Z,49.58
2019-01-21T16:47:19.608Z,55.17
2019-01-21T16:49:51.041Z,53.42
2019-01-21T16:52:22.892Z,55.60
2019-01-21T16:54:54.158Z,51.53
2019-01-21T16:57:25.732Z,57.27
2019-01-21T16:59:57.030Z,58.98
2019-01-21T17:02:28.349Z,62.17
2019-01-21T17:04:59.536Z,59.15
2019-01-21T17:07:31.125Z,62.33
2019-01-21T17:10:02.656Z,59.77
2019-01-21T17:12:35.821Z,71.97
2019-01-21T17:15:09.487Z,83.27
2019-01-21T17:17:42.051Z,76.62
2019-01-21T17:20:16.570Z,75.35
2019-01-21T17:22:47.927Z,79.95
2019-01-21T17:25:19.366Z,78.90
2019-01-21T17:27:50.654Z,82.62
2019-01-21T17:30:22.121Z,82.92
2019-01-21T17:32:53.313Z,76.80
2019-01-21T17:35:24.766Z,81.72
2019-01-21T17:37:55.974Z,78.07
2019-01-21T17:40:27.357Z,78.75
2019-01-21T17:42:58.787Z,78.40
2019-01-21T17:45:30.508Z,79.75
2019-01-21T17:48:02.221Z,85.22
2019-01-21T17:50:33.790Z,86.15
2019-01-21T17:53:05.058Z,82.78
2019-01-21T17:55:36.531Z,84.42
2019-01-21T17:58:07.983Z,82.65
2019-01-21T18:00:39.665Z,80.25
2019-01-21T18:03:11.077Z,88.85
2019-01-21T18:05:43.089Z,104.12
2019-01-21T18:08:16.183Z,114.52
2019-01-21T18:10:48.105Z,92.72
2019-01-21T18:13:20.191Z,101.67
2019-01-21T18:15:52.026Z,99.70
2019-01-21T18:18:23.515Z,88.65
2019-01-21T18:20:54.946Z,87.45
2019-01-21T18:23:26.628Z,86.53
2019-01-21T18:25:58.929Z,91.95
2019-01-21T18:28:30.437Z,86.60
2019-01-21T18:31:01.658Z,92.10
2019-01-21T18:33:32.998Z,79.87
2019-01-21T18:36:04.604Z,81.65
2019-01-21T18:38:36.286Z,85.83
2019-01-21T18:41:07.975Z,79.12
2019-01-21T18:43:39.397Z,87.60
2019-01-21T18:46:11.073Z,88.70
2019-01-21T18:48:42.666Z,89.47
2019-01-21T18:51:14.293Z,85.80
2019-01-21T18:53:45.796Z,78.45
2019-01-21T18:56:17.279Z,82.57
2019-01-21T18:58:48.808Z,80.85
2019-01-21T19:01:20.497Z,75.60
2019-01-21T19:03:51.996Z,77.50
2019-01-21T19:06:23.732Z,84.45
2019-01-21T19:08:55.225Z,80.62
2019-01-21T19:11:26.585Z,73.83
2019-01-21T19:13:59.263Z,75.95
2019-01-21T19:16:31.118Z,73.55
2019-01-21T19:19:03.184Z,80.62
2019-01-21T19:21:34.918Z,77.40
2019-01-21T19:24:06.993Z,78.70
2019-01-21T19:26:38.304Z,82.17
2019-01-21T19:29:09.481Z,75.92
2019-01-21T19:31:40.980Z,71.42
2019-01-21T19:34:12.656Z,75.28
2019-01-21T19:36:44.329Z,78.30
2019-01-21T19:39:16.226Z,74.07
2019-01-21T19:41:47.788Z,75.00
2019-01-21T19:44:19.341Z,73.28
2019-01-21T19:46:50.578Z,69.32
2019-01-21T19:49:22.097Z,73.07
2019-01-21T19:51:53.632Z,71.45
2019-01-21T19:54:24.962Z,69.80
2019-01-21T19:56:56.749Z,72.97
2019-01-21T19:59:27.970Z,62.65
2019-01-21T20:01:59.279Z,62.43
2019-01-21T20:04:30.527Z,68.37
2019-01-21T20:07:02.126Z,68.15
2019-01-21T20:09:33.651Z,59.75
2019-01-21T20:12:04.868Z,58.58
2019-01-21T20:14:36.388Z,56.10
2019-01-21T20:17:07.841Z,57.30
2019-01-21T20:19:39.181Z,62.80
2019-01-21T20:22:10.624Z,64.87
2019-01-21T20:24:41.888Z,64.45
2019-01-21T20:27:13.076Z,68.78
2019-01-21T20:29:44.579Z,62.17
2019-01-21T20:32:15.988Z,62.17
2019-01-21T20:34:47.193Z,64.53
2019-01-21T20:37:18.589Z,60.48
2019-01-21T20:39:49.809Z,75.35
2019-01-21T20:42:21.083Z,54.35
2019-01-21T20:44:52.285Z,65.85
2019-01-21T20:47:23.506Z,66.90
2019-01-21T20:49:54.791Z,69.45
2019-01-21T20:52:26.236Z,68.15
2019-01-21T20:54:57.787Z,77.20
2019-01-21T20:57:29.372Z,78.37
2019-01-21T21:00:00.757Z,89.55
2019-01-21T21:02:32.176Z,84.00
2019-01-21T21:05:03.477Z,76.55
2019-01-21T21:07:34.695Z,81.95
2019-01-21T21:10:07.442Z,69.80
2019-01-21T21:12:38.868Z,69.67
2019-01-21T21:15:13.514Z,66.00
2019-01-21T21:17:45.004Z,64.22
2019-01-21T21:20:16.694Z,71.97
2019-01-21T21:22:48.649Z,68.20
2019-01-21T21:25:20.499Z,70.25
2019-01-21T21:27:51.928Z,72.22
2019-01-21T21:30:28.331Z,66.02
2019-01-21T21:33:00.194Z,64.37
2019-01-21T21:35:31.469Z,66.75
2019-01-21T21:38:02.999Z,67.12
2019-01-21T21:40:34.598Z,60.38
2019-01-21T21:43:06.267Z,63.35
2019-01-21T21:45:37.940Z,61.00
2019-01-21T21:48:09.297Z,63.38
2019-01-21T21:50:41.339Z,60.67
2019-01-21T21:53:14.184Z,65.45
2019-01-21T21:55:45.671Z,65.35
2019-01-21T21:58:17.146Z,66.20
2019-01-21T22:00:48.685Z,60.48
2019-01-21T22:03:21.150Z,63.17
2019-01-21T22:05:52.453Z,57.43
2019-01-21T22:08:24.180Z,64.67
2019-01-21T22:10:55.537Z,65.80
2019-01-21T22:13:26.792Z,70.32
2019-01-21T22:15:58.388Z,76.02
2019-01-21T22:18:29.933Z,67.92
2019-01-21T22:21:02.181Z,70.10
2019-01-21T22:23:33.983Z,64.40
2019-01-21T22:26:05.563Z,69.35
2019-01-21T22:28:37.118Z,71.90
2019-01-21T22:31:08.523Z,63.02
2019-01-21T22:33:40.076Z,69.97
2019-01-21T22:36:11.909Z,68.70
2019-01-21T22:38:43.427Z,69.58
2019-01-21T22:41:15.190Z,64.80
2019-01-21T22:43:46.458Z,69.90
2019-01-21T22:46:17.915Z,64.25
2019-01-21T22:48:49.403Z,63.60
2019-01-21T22:51:21.056Z,69.60
2019-01-21T22:53:52.258Z,69.50
2019-01-21T22:56:23.863Z,64.05
2019-01-21T22:58:55.171Z,62.60
2019-01-21T23:01:32.488Z,67.32
2019-01-21T23:04:04.022Z,64.35
2019-01-21T23:06:35.345Z,66.53
2019-01-21T23:09:09.548Z,64.22
2019-01-21T23:11:41.033Z,63.95
2019-01-21T23:14:12.303Z,69.22
2019-01-21T23:16:43.621Z,57.03
2019-01-21T23:19:15.079Z,57.98
2019-01-21T23:21:46.550Z,62.67
2019-01-21T23:24:18.457Z,54.08
2019-01-21T23:26:50.128Z,56.83
2019-01-21T23:29:21.732Z,57.73
2019-01-21T23:31:52.945Z,56.33
2019-01-21T23:35:18.142Z,57.00
2019-01-21T23:37:51.246Z,53.48
2019-01-21T23:40:22.435Z,49.67
2019-01-21T23:42:53.855Z,53.63
2019-01-21T23:45:25.351Z,52.73
2019-01-21T23:47:56.537Z,49.30
2019-01-21T23:50:28.389Z,44.55
2019-01-21T23:52:59.636Z,46.63
2019-01-21T23:55:30.946Z,47.67
2019-01-21T23:58:02.481Z,47.80
